Time;durP1;ratioP1;P1;durP2;ratioP2;P2;SDS_P1;SDS_P2;PMS_P1;PMS_P2;Temp;Humidity;BMP_temperature;BMP_pressure;BME280_temperature;BME280_humidity;BME280_pressure;Samples;Min_cycle;Max_cycle;Signal;HPM_P1;HPM_P2
2022/07/31 04:02:00;;;;;;;8.30;5.32;;;18.20;99.90;;;;;;5251305;23;20117;-88
2022/07/31 04:04:25;;;;;;;11.57;5.15;;;18.20;99.90;;;;;;4974592;28;20049;-87
2022/07/31 04:06:51;;;;;;;7.63;4.88;;;18.20;99.90;;;;;;4975047;28;20047;-86
2022/07/31 04:09:19;;;;;;;6.45;4.70;;;18.20;99.90;;;;;;4974843;28;20047;-86
2022/07/31 04:11:58;;;;;;;;;;;;;;;;;;;;;
2022/07/31 04:15:27;;;;;;;7.15;4.55;;;18.10;99.90;;;;;;4974249;28;20501;-86
2022/07/31 04:17:30;;;;;;;10.73;5.57;;;18.10;99.90;;;;;;4968529;28;20055;-87
2022/07/31 04:20:34;;;;;;;;;;;;;;;;;;;;;
2022/07/31 04:24:28;;;;;;;;;;;;;;;;;;;;;
2022/07/31 04:30:46;;;;;;;10.68;4.93;;;18.10;99.90;;;;;;4975298;28;20046;-87
2022/07/31 04:33:14;;;;;;;8.95;5.03;;;18.10;99.90;;;;;;4958137;28;20043;-85
2022/07/31 04:35:41;;;;;;;7.32;4.70;;;18.10;99.90;;;;;;4974319;28;20045;-88
2022/07/31 04:38:06;;;;;;;7.22;5.05;;;18.10;99.90;;;;;;4976181;28;20132;-87
2022/07/31 04:40:45;;;;;;;6.95;4.65;;;18.10;99.90;;;;;;4974180;28;20126;-87
2022/07/31 04:43:11;;;;;;;7.65;4.90;;;18.10;99.90;;;;;;4958103;28;20047;-86
2022/07/31 04:45:37;;;;;;;7.85;4.70;;;18.10;99.90;;;;;;4958453;28;20134;-86
2022/07/31 04:48:15;;;;;;;9.73;5.10;;;18.10;99.90;;;;;;4974346;28;20066;-87
2022/07/31 04:50:47;;;;;;;8.00;5.10;;;18.10;99.90;;;;;;4974363;28;20041;-87
2022/07/31 04:53:13;;;;;;;7.53;5.45;;;18.10;99.90;;;;;;4958592;28;20043;-86
2022/07/31 04:55:38;;;;;;;8.82;5.07;;;18.00;99.90;;;;;;4958587;28;20047;-86
2022/07/31 04:58:04;;;;;;;9.00;4.93;;;18.10;99.90;;;;;;4958190;28;20035;-87
2022/07/31 05:00:30;;;;;;;10.57;5.20;;;18.10;99.90;;;;;;4974913;28;20047;-87
2022/07/31 05:02:55;;;;;;;7.60;4.90;;;18.10;99.90;;;;;;4975348;28;20035;-85
2022/07/31 05:05:31;;;;;;;5.45;4.47;;;18.10;99.90;;;;;;4958047;28;20487;-86
2022/07/31 05:07:57;;;;;;;7.30;4.75;;;18.10;99.90;;;;;;4974069;28;20050;-87
2022/07/31 05:13:07;;;;;;;8.70;4.85;;;18.20;99.90;;;;;;4974531;28;20097;-88
2022/07/31 05:15:32;;;;;;;10.65;5.13;;;18.20;99.90;;;;;;4975153;28;20471;-85
2022/07/31 05:18:01;;;;;;;7.20;4.95;;;18.20;99.90;;;;;;4977603;28;20071;-87
2022/07/31 05:20:29;;;;;;;11.82;4.95;;;18.20;99.90;;;;;;4961614;28;20436;-85
2022/07/31 05:22:55;;;;;;;9.70;5.22;;;18.20;99.90;;;;;;4977643;28;20084;-86
2022/07/31 05:26:37;;;;;;;;;;;;;;;;;;;;;
2022/07/31 05:30:53;;;;;;;9.57;5.80;;;18.20;99.90;;;;;;4881207;29;20055;-86
2022/07/31 05:33:29;;;;;;;9.27;5.47;;;18.30;99.90;;;;;;4880945;29;20043;-86
2022/07/31 05:35:56;;;;;;;8.65;4.93;;;18.30;99.90;;;;;;4917768;28;20585;-86
2022/07/31 05:38:22;;;;;;;10.68;6.13;;;18.30;99.90;;;;;;4977810;28;20053;-86
2022/07/31 05:40:53;;;;;;;7.95;5.53;;;18.30;99.90;;;;;;4961247;28;20393;-86
2022/07/31 05:43:32;;;;;;;11.18;6.28;;;18.30;99.90;;;;;;4960327;28;20055;-86
2022/07/31 05:45:58;;;;;;;8.23;5.85;;;18.30;99.90;;;;;;4976908;28;20057;-86
2022/07/31 05:48:24;;;;;;;8.57;6.13;;;18.30;99.90;;;;;;4977479;28;20047;-88
2022/07/31 05:50:53;;;;;;;10.75;6.50;;;18.30;99.90;;;;;;4961536;28;20066;-85
2022/07/31 05:53:28;;;;;;;9.63;5.85;;;18.40;99.90;;;;;;4960420;28;20062;-86
2022/07/31 05:59:34;;;;;;;8.43;6.30;;;18.40;99.90;;;;;;4978140;28;20097;-85
2022/07/31 06:02:00;;;;;;;8.45;6.13;;;18.40;99.90;;;;;;4976387;28;20482;-86
2022/07/31 06:04:26;;;;;;;10.50;6.50;;;18.50;99.90;;;;;;4978781;28;20074;-86
2022/07/31 06:06:51;;;;;;;8.25;6.20;;;18.50;99.90;;;;;;4977015;28;20031;-85
2022/07/31 06:09:17;;;;;;;10.40;6.30;;;18.50;99.90;;;;;;4961162;28;20053;-84
2022/07/31 06:11:55;;;;;;;10.23;6.40;;;18.50;99.90;;;;;;4976756;28;20042;-87
2022/07/31 06:14:21;;;;;;;11.18;6.38;;;18.60;99.90;;;;;;4977094;28;20042;-87
2022/07/31 06:16:48;;;;;;;9.43;6.80;;;18.60;99.90;;;;;;4977310;28;20128;-86
2022/07/31 06:19:49;;;;;;;8.15;6.10;;;18.70;99.90;;;;;;4978070;28;20394;-86
2022/07/31 06:22:42;;;;;;;;;;;;;;;;;;;;;
2022/07/31 06:25:28;;;;;;;11.00;6.83;;;18.80;99.90;;;;;;4975357;28;20055;-85
2022/07/31 06:28:24;;;;;;;9.60;7.07;;;18.80;99.90;;;;;;4958924;28;20366;-85
2022/07/31 06:31:04;;;;;;;9.00;6.55;;;18.90;99.90;;;;;;4974602;28;20106;-86
2022/07/31 06:33:36;;;;;;;11.70;7.32;;;18.90;99.90;;;;;;4958394;28;20066;-85
2022/07/31 06:36:02;;;;;;;12.63;7.22;;;19.00;99.90;;;;;;4959135;28;20399;-84
2022/07/31 06:38:29;;;;;;;11.23;7.35;;;19.00;99.90;;;;;;4942846;28;20051;-84
2022/07/31 06:43:58;;;;;;;11.52;7.45;;;19.10;99.90;;;;;;4958288;28;20051;-85
2022/07/31 06:46:39;;;;;;;;;;;;;;;;;;;;;
2022/07/31 06:49:05;;;;;;;10.13;7.78;;;19.10;99.90;;;;;;4974321;28;20051;-85
2022/07/31 06:51:32;;;;;;;11.93;8.43;;;19.20;99.90;;;;;;4941453;28;20095;-86
2022/07/31 06:54:02;;;;;;;10.57;7.55;;;19.20;99.90;;;;;;4958722;28;20055;-86
2022/07/31 06:56:29;;;;;;;10.23;7.72;;;19.30;99.90;;;;;;4974956;28;20093;-85
2022/07/31 06:58:55;;;;;;;10.43;7.65;;;19.30;99.90;;;;;;4956103;28;20055;-85
2022/07/31 07:01:21;;;;;;;11.25;7.45;;;19.30;99.90;;;;;;4974406;28;20043;-85
2022/07/31 07:03:47;;;;;;;13.23;7.43;;;19.30;99.90;;;;;;4959651;28;20039;-84
2022/07/31 07:06:15;;;;;;;11.55;7.35;;;19.30;99.90;;;;;;4958995;28;20042;-85
2022/07/31 07:08:51;;;;;;;12.50;7.35;;;19.30;99.90;;;;;;4958979;28;20129;-85
2022/07/31 07:11:17;;;;;;;9.65;6.85;;;19.40;99.90;;;;;;4975876;28;20074;-86
2022/07/31 07:13:43;;;;;;;14.05;8.52;;;19.40;99.90;;;;;;4958901;28;20154;-85
2022/07/31 07:16:09;;;;;;;12.60;7.80;;;19.40;99.90;;;;;;4975308;28;20038;-86
2022/07/31 07:18:35;;;;;;;10.63;7.82;;;19.50;99.90;;;;;;4976404;28;20567;-86
2022/07/31 07:21:01;;;;;;;12.60;8.07;;;19.50;99.90;;;;;;4974946;28;20051;-87
2022/07/31 07:23:27;;;;;;;12.52;7.20;;;19.50;99.90;;;;;;4958571;28;20046;-83
2022/07/31 07:25:52;;;;;;;8.65;6.90;;;19.60;99.90;;;;;;4957997;28;20045;-87
2022/07/31 07:28:18;;;;;;;13.10;7.90;;;19.60;99.90;;;;;;4974479;28;20039;-85
2022/07/31 07:30:44;;;;;;;12.90;7.03;;;19.70;99.90;;;;;;4975994;28;20054;-85
2022/07/31 07:33:19;;;;;;;13.82;7.70;;;19.70;99.90;;;;;;4958334;28;20053;-84
2022/07/31 07:35:57;;;;;;;13.70;7.65;;;19.70;99.90;;;;;;4959544;28;20109;-85
2022/07/31 07:38:23;;;;;;;12.15;8.57;;;19.70;99.90;;;;;;4957096;28;20461;-83
2022/07/31 07:40:59;;;;;;;16.58;8.23;;;19.70;99.90;;;;;;4974671;28;20121;-85
2022/07/31 07:43:25;;;;;;;15.77;8.70;;;19.70;99.90;;;;;;4975125;28;20375;-85
2022/07/31 07:45:51;;;;;;;12.02;8.20;;;19.70;99.90;;;;;;4958171;28;20045;-86
2022/07/31 07:48:16;;;;;;;13.13;8.02;;;19.80;99.90;;;;;;4975851;28;20043;-84
2022/07/31 07:50:42;;;;;;;13.63;8.98;;;19.80;99.90;;;;;;4976135;28;20047;-86
2022/07/31 07:53:07;;;;;;;14.05;8.80;;;19.80;99.90;;;;;;4959351;28;20126;-86
2022/07/31 07:56:23;;;;;;;15.43;8.88;;;19.80;99.90;;;;;;4975203;28;20042;-85
2022/07/31 08:02:17;;;;;;;12.15;8.15;;;19.90;99.90;;;;;;4918711;28;20051;-84
2022/07/31 08:04:49;;;;;;;13.93;8.95;;;20.00;99.90;;;;;;4973532;28;20137;-85
2022/07/31 08:07:15;;;;;;;14.30;8.70;;;20.00;99.90;;;;;;4976264;28;20383;-84
2022/07/31 08:09:40;;;;;;;14.13;8.27;;;20.00;99.90;;;;;;4973917;28;20057;-85
2022/07/31 08:12:34;;;;;;;12.90;8.88;;;20.00;99.90;;;;;;4974490;28;20537;-86
2022/07/31 08:15:00;;;;;;;15.57;8.38;;;20.00;99.90;;;;;;4974288;28;20055;-86
2022/07/31 08:17:26;;;;;;;13.02;8.00;;;20.00;99.90;;;;;;4975293;28;20062;-86
2022/07/31 08:19:51;;;;;;;14.82;8.38;;;20.00;99.90;;;;;;4958827;28;20042;-86
2022/07/31 08:22:20;;;;;;;11.93;8.05;;;19.90;99.90;;;;;;4958111;28;20131;-84
2022/07/31 08:24:45;;;;;;;12.65;8.90;;;19.90;99.90;;;;;;4974347;28;20506;-83
2022/07/31 08:27:23;;;;;;;12.93;9.02;;;19.80;99.90;;;;;;4973676;28;20038;-84
2022/07/31 08:29:55;;;;;;;14.60;9.48;;;19.80;99.90;;;;;;4973581;28;20042;-82
2022/07/31 08:32:27;;;;;;;12.82;9.90;;;19.80;99.90;;;;;;4957841;28;20054;-85
2022/07/31 08:34:53;;;;;;;15.88;9.68;;;19.70;99.90;;;;;;4974112;28;20050;-85
2022/07/31 08:37:19;;;;;;;15.60;9.98;;;19.60;99.90;;;;;;4974202;28;20039;-84
2022/07/31 08:39:46;;;;;;;19.15;10.40;;;19.60;99.90;;;;;;4957478;28;20050;-83
2022/07/31 08:42:13;;;;;;;15.80;10.68;;;19.60;99.90;;;;;;4973516;28;20054;-86
2022/07/31 08:44:40;;;;;;;18.38;10.52;;;19.60;99.90;;;;;;4974138;28;20122;-87
2022/07/31 08:47:09;;;;;;;18.77;10.27;;;19.60;99.90;;;;;;4974937;28;20045;-86
2022/07/31 08:49:45;;;;;;;19.00;10.27;;;19.60;99.90;;;;;;4962693;28;20117;-86
2022/07/31 08:52:16;;;;;;;21.23;10.38;;;19.60;99.90;;;;;;4986409;28;20058;-86
2022/07/31 08:54:44;;;;;;;16.95;11.02;;;19.60;99.90;;;;;;4984540;28;20101;-85
2022/07/31 08:57:11;;;;;;;16.15;10.45;;;19.50;99.90;;;;;;4973018;28;20054;-81
2022/07/31 08:59:39;;;;;;;17.85;11.05;;;19.50;99.90;;;;;;4996387;28;20054;-80
2022/07/31 09:02:06;;;;;;;19.30;11.27;;;19.40;99.90;;;;;;4993154;28;20098;-85
2022/07/31 09:04:31;;;;;;;17.60;12.43;;;19.30;99.90;;;;;;4980081;28;20081;-84
2022/07/31 09:06:59;;;;;;;20.48;13.95;;;19.30;99.90;;;;;;4977976;28;20415;-83
2022/07/31 09:09:28;;;;;;;18.38;12.25;;;19.20;99.90;;;;;;4991299;28;20047;-80
2022/07/31 09:11:55;;;;;;;22.02;13.02;;;19.20;99.90;;;;;;4978250;28;20050;-83
2022/07/31 09:14:33;;;;;;;19.42;13.65;;;19.10;99.90;;;;;;4978065;28;20093;-86
2022/07/31 09:17:14;;;;;;;23.15;14.07;;;19.10;99.90;;;;;;4961771;28;20066;-85
2022/07/31 09:19:44;;;;;;;22.00;14.02;;;19.10;99.90;;;;;;4976677;28;20070;-86
2022/07/31 09:22:28;;;;;;;21.92;14.48;;;19.20;99.90;;;;;;4960612;28;20113;-84
2022/07/31 09:25:06;;;;;;;23.70;14.32;;;19.20;99.90;;;;;;4978329;28;20113;-85
2022/07/31 09:27:32;;;;;;;19.38;14.30;;;19.20;99.90;;;;;;4978363;28;20467;-85
2022/07/31 09:29:57;;;;;;;27.67;14.98;;;19.20;99.90;;;;;;4977987;28;20127;-85
2022/07/31 09:32:23;;;;;;;21.33;14.57;;;19.10;99.90;;;;;;4977611;28;20038;-86
2022/07/31 09:34:49;;;;;;;26.20;16.10;;;19.10;99.90;;;;;;4977861;28;20042;-84
2022/07/31 09:37:20;;;;;;;27.27;15.73;;;19.10;99.90;;;;;;4975835;28;20074;-84
2022/07/31 09:39:53;;;;;;;24.17;15.15;;;19.00;99.90;;;;;;4976011;28;20382;-84
2022/07/31 09:42:20;;;;;;;26.35;16.25;;;19.10;99.90;;;;;;4976265;28;20402;-84
2022/07/31 09:44:47;;;;;;;25.88;16.65;;;19.10;99.90;;;;;;4977626;28;20394;-85
2022/07/31 09:47:24;;;;;;;24.25;17.48;;;19.10;99.90;;;;;;4976161;28;20042;-84
2022/07/31 09:49:58;;;;;;;32.88;17.40;;;19.10;99.90;;;;;;4976232;28;20502;-85
2022/07/31 09:52:26;;;;;;;26.50;16.98;;;19.00;99.90;;;;;;4974225;28;20558;-84
2022/07/31 09:55:08;;;;;;;31.75;18.70;;;19.10;99.90;;;;;;4977379;28;20035;-83
2022/07/31 09:57:34;;;;;;;24.58;17.13;;;19.10;99.90;;;;;;4975610;28;20061;-84
2022/07/31 10:00:00;;;;;;;25.92;18.42;;;19.10;99.90;;;;;;4975693;28;20549;-83
2022/07/31 10:02:28;;;;;;;28.77;17.92;;;19.10;99.90;;;;;;4971274;28;20054;-84
2022/07/31 10:04:56;;;;;;;30.13;18.58;;;19.10;99.90;;;;;;4955988;29;20507;-85
2022/07/31 10:07:26;;;;;;;29.73;17.92;;;19.10;99.90;;;;;;4956232;29;20035;-85
2022/07/31 10:09:56;;;;;;;28.38;18.63;;;19.00;99.90;;;;;;4956292;28;20449;-84
2022/07/31 10:12:27;;;;;;;32.22;19.25;;;19.00;99.90;;;;;;4956315;29;20054;-83
2022/07/31 10:15:05;;;;;;;29.63;18.38;;;19.10;99.90;;;;;;4956421;29;20101;-84
2022/07/31 10:17:34;;;;;;;36.63;21.17;;;19.10;99.90;;;;;;4955895;29;20058;-84
2022/07/31 10:20:05;;;;;;;31.60;20.08;;;19.00;99.90;;;;;;4957331;28;20426;-84
2022/07/31 10:22:37;;;;;;;33.10;20.00;;;19.10;99.90;;;;;;4955985;29;20047;-82
2022/07/31 10:25:04;;;;;;;31.30;19.80;;;19.10;99.90;;;;;;4958200;28;20046;-90
2022/07/31 10:27:31;;;;;;;31.52;19.30;;;19.10;99.90;;;;;;4943589;29;20043;-90
2022/07/31 10:29:57;;;;;;;32.88;19.65;;;19.10;99.90;;;;;;4956410;29;20046;-77
2022/07/31 10:32:23;;;;;;;35.88;21.60;;;19.10;99.90;;;;;;4955582;29;20130;-85
2022/07/31 10:34:52;;;;;;;35.42;20.50;;;19.10;99.90;;;;;;4956264;29;20129;-88
2022/07/31 10:37:47;;;;;;;38.00;22.45;;;19.10;99.90;;;;;;4940476;29;20224;-82
2022/07/31 10:40:56;;;;;;;39.80;23.45;;;19.10;99.90;;;;;;4957000;28;20487;-75
2022/07/31 10:43:47;;;;;;;37.97;21.83;;;19.10;99.90;;;;;;4957409;29;20058;-93
2022/07/31 10:46:13;;;;;;;37.25;22.35;;;19.10;99.90;;;;;;4959155;28;20114;-81
2022/07/31 10:48:50;;;;;;;42.17;24.15;;;19.10;99.90;;;;;;4957509;28;20137;-86
2022/07/31 10:51:15;;;;;;;38.40;23.33;;;19.10;99.90;;;;;;4975177;28;20421;-86
2022/07/31 10:53:55;;;;;;;37.53;23.42;;;19.10;99.90;;;;;;4958318;28;20042;-87
2022/07/31 10:56:21;;;;;;;42.50;25.33;;;19.10;99.90;;;;;;4957554;28;20047;-88
2022/07/31 10:58:52;;;;;;;48.30;26.17;;;19.10;99.90;;;;;;4959269;28;20069;-90
2022/07/31 11:01:18;;;;;;;44.75;26.05;;;19.10;99.90;;;;;;4975575;28;20035;-84
2022/07/31 11:03:47;;;;;;;48.50;28.08;;;19.10;99.90;;;;;;4976275;28;20471;-85
2022/07/31 11:06:16;;;;;;;48.85;27.80;;;19.10;99.90;;;;;;4976756;28;20038;-83
2022/07/31 11:08:51;;;;;;;47.25;28.60;;;19.00;99.90;;;;;;4974593;28;20510;-88
2022/07/31 11:11:29;;;;;;;48.47;27.17;;;19.00;99.90;;;;;;4974641;28;20054;-86
2022/07/31 11:13:55;;;;;;;51.17;28.42;;;18.90;99.90;;;;;;4974853;28;20053;-84
2022/07/31 11:16:23;;;;;;;54.28;29.20;;;18.90;99.90;;;;;;4958405;28;20482;-89
2022/07/31 11:19:08;;;;;;;57.97;28.83;;;18.90;99.90;;;;;;4958532;28;20054;-89
2022/07/31 11:21:35;;;;;;;53.30;29.08;;;18.90;99.90;;;;;;4974466;28;20054;-87
2022/07/31 11:24:22;;;;;;;49.38;29.30;;;18.90;99.90;;;;;;4975532;28;20034;-89
2022/07/31 11:26:52;;;;;;;53.35;29.30;;;18.90;99.90;;;;;;4974915;28;20517;-89
2022/07/31 11:29:31;;;;;;;46.38;26.17;;;18.80;99.90;;;;;;4974576;28;20114;-90
2022/07/31 11:32:24;;;;;;;45.63;27.05;;;18.80;99.90;;;;;;4974379;28;20418;-87
2022/07/31 11:34:54;;;;;;;54.38;29.63;;;18.80;99.90;;;;;;4957892;28;20047;-89
2022/07/31 11:38:07;;;;;;;61.00;32.08;;;18.80;99.90;;;;;;4975770;28;20043;-88
2022/07/31 11:41:05;;;;;;;59.70;31.25;;;18.80;99.90;;;;;;4906755;28;20066;-91
2022/07/31 12:06:12;;;;;;;;;;;19.00;99.90;;;;;;4068524;26;20436;-89
2022/07/31 12:09:30;;;;;;;;;;;;;;;;;;;;;
2022/07/31 12:12:17;;;;;;;72.60;35.88;;;19.00;99.90;;;;;;4937581;29;20106;-89
2022/07/31 12:14:52;;;;;;;63.50;34.78;;;19.00;99.90;;;;;;4921566;29;20055;-90
2022/07/31 12:17:39;;;;;;;;;;;;;;;;;;;;;
2022/07/31 12:20:07;;;;;;;55.45;30.13;;;19.00;99.90;;;;;;4935549;29;20090;-87
2022/07/31 12:22:36;;;;;;;49.40;27.58;;;19.00;99.90;;;;;;4938092;29;20122;-86
2022/07/31 12:25:11;;;;;;;53.65;29.52;;;19.00;99.90;;;;;;4922161;29;20131;-90
2022/07/31 12:27:42;;;;;;;48.10;27.95;;;18.90;99.90;;;;;;4940925;29;20035;-87
2022/07/31 12:30:13;;;;;;;50.70;27.63;;;18.90;99.90;;;;;;4926062;29;20051;-85
2022/07/31 12:32:39;;;;;;;50.55;27.63;;;18.90;99.90;;;;;;4926523;29;20138;-88
2022/07/31 12:35:11;;;;;;;52.10;28.50;;;18.90;99.90;;;;;;4925169;29;20075;-87
2022/07/31 12:37:52;;;;;;;65.97;31.98;;;18.90;99.90;;;;;;4924859;29;20054;-88
2022/07/31 12:40:28;;;;;;;50.83;26.05;;;18.80;99.90;;;;;;4925494;29;20051;-88
2022/07/31 12:42:58;;;;;;;52.70;27.17;;;18.90;99.90;;;;;;4925130;29;20047;-87
2022/07/31 12:45:37;;;;;;;46.85;24.95;;;18.80;99.90;;;;;;4940911;29;20043;-86
2022/07/31 12:48:06;;;;;;;43.35;22.10;;;18.90;99.90;;;;;;4925845;29;20527;-88
2022/07/31 12:50:33;;;;;;;32.88;19.23;;;18.90;99.90;;;;;;4942082;29;20040;-87
2022/07/31 12:53:10;;;;;;;39.97;22.35;;;18.80;99.90;;;;;;4925016;29;20051;-88
2022/07/31 12:56:12;;;;;;;36.33;19.70;;;18.90;99.90;;;;;;4939855;29;20047;-88
2022/07/31 12:58:50;;;;;;;35.10;18.92;;;18.90;99.90;;;;;;4924962;29;20110;-88
2022/07/31 13:01:22;;;;;;;37.25;19.48;;;18.90;99.90;;;;;;4922947;29;20491;-89
2022/07/31 13:04:22;;;;;;;42.17;20.75;;;18.90;99.90;;;;;;4938795;29;20039;-88
2022/07/31 13:07:13;;;;;;;33.35;16.85;;;18.90;99.90;;;;;;4921869;29;20052;-87
2022/07/31 13:09:39;;;;;;;28.52;17.20;;;19.00;99.90;;;;;;4923194;29;20532;-89
2022/07/31 13:12:08;;;;;;;30.02;17.13;;;19.00;99.90;;;;;;4922496;29;20488;-91
2022/07/31 13:14:39;;;;;;;29.33;16.67;;;19.00;99.90;;;;;;4922351;29;20115;-88
2022/07/31 13:17:06;;;;;;;22.02;13.23;;;19.00;99.90;;;;;;4939104;29;20048;-89
2022/07/31 13:19:40;;;;;;;26.50;14.98;;;19.00;99.90;;;;;;4923739;29;20391;-90
2022/07/31 13:22:19;;;;;;;;;;;;;;;;;;;;;
2022/07/31 13:25:04;;;;;;;;;;;;;;;;;;;;;
2022/07/31 13:27:32;;;;;;;17.63;11.13;;;19.10;99.90;;;;;;4921998;29;20480;-90
2022/07/31 13:32:52;;;;;;;14.43;10.05;;;19.30;99.90;;;;;;5130521;23;20133;-90
2022/07/31 13:36:10;;;;;;;;;;;;;;;;;;;;;
2022/07/31 13:42:10;;;;;;;13.13;8.93;;;19.50;99.90;;;;;;4885388;29;20055;-90
2022/07/31 13:44:36;;;;;;;10.68;8.10;;;19.60;99.90;;;;;;4884981;29;20445;-91
2022/07/31 13:47:31;;;;;;;;;;;;;;;;;;;;;
2022/07/31 13:50:12;;;;;;;10.50;6.60;;;19.60;99.90;;;;;;4899682;29;20085;-89
2022/07/31 13:52:37;;;;;;;9.35;6.10;;;19.70;99.90;;;;;;4881666;29;20390;-88
2022/07/31 13:55:16;;;;;;;;;;;;;;;;;;;;;
2022/07/31 13:57:50;;;;;;;6.38;5.22;;;19.80;99.90;;;;;;4959358;29;20049;-89
2022/07/31 14:03:18;;;;;;;9.68;6.03;;;19.80;99.90;;;;;;4960153;29;20055;-89
2022/07/31 14:05:46;;;;;;;12.30;6.60;;;19.80;99.90;;;;;;4940033;29;20074;-90
2022/07/31 14:08:16;;;;;;;10.05;6.50;;;19.80;99.90;;;;;;4925760;29;20051;-88
2022/07/31 14:10:43;;;;;;;10.63;6.38;;;19.70;99.90;;;;;;4944036;29;20134;-87
2022/07/31 14:13:09;;;;;;;9.68;6.88;;;19.60;99.90;;;;;;4926225;29;20051;-90
2022/07/31 14:15:34;;;;;;;11.43;7.50;;;19.60;99.90;;;;;;4942517;29;20043;-88
2022/07/31 14:18:00;;;;;;;13.70;7.45;;;19.60;99.90;;;;;;4941472;29;20047;-86
2022/07/31 14:20:33;;;;;;;11.82;6.97;;;19.50;99.90;;;;;;4940472;29;20134;-88
2022/07/31 14:23:01;;;;;;;11.93;6.75;;;19.60;99.90;;;;;;4957624;29;20050;-89
2022/07/31 14:25:27;;;;;;;9.07;5.90;;;19.60;99.90;;;;;;4942003;29;20070;-92
2022/07/31 14:27:53;;;;;;;10.98;6.30;;;19.70;99.90;;;;;;4926748;29;20104;-88
2022/07/31 14:32:44;;;;;;;9.45;6.25;;;19.80;99.90;;;;;;4980065;23;20046;-87
2022/07/31 14:35:10;;;;;;;9.13;6.18;;;19.90;99.90;;;;;;4962262;28;20092;-89
2022/07/31 14:37:37;;;;;;;10.00;6.80;;;19.90;99.90;;;;;;4962952;28;20042;-88
2022/07/31 14:40:04;;;;;;;10.10;6.70;;;19.90;99.90;;;;;;4980727;28;20057;-90
2022/07/31 14:42:31;;;;;;;11.10;6.97;;;19.90;99.90;;;;;;4962310;28;20046;-89
2022/07/31 14:44:57;;;;;;;9.75;6.00;;;20.00;99.90;;;;;;4964354;28;20483;-89
2022/07/31 14:47:24;;;;;;;9.00;6.80;;;20.00;99.90;;;;;;4978681;28;20070;-89
2022/07/31 14:49:52;;;;;;;10.23;6.43;;;20.10;99.90;;;;;;4979579;28;20451;-89
2022/07/31 14:52:18;;;;;;;10.80;6.88;;;20.00;99.90;;;;;;4963640;28;20039;-89
2022/07/31 14:54:43;;;;;;;12.60;6.82;;;20.00;99.90;;;;;;4979369;28;20098;-89
2022/07/31 14:57:09;;;;;;;9.98;6.15;;;19.90;99.90;;;;;;4981041;28;20061;-92
2022/07/31 14:59:45;;;;;;;9.85;7.18;;;19.90;99.90;;;;;;4962640;28;20053;-92
2022/07/31 15:02:44;;;;;;;;;;;;;;;;;;;;;
2022/07/31 15:05:33;;;;;;;10.73;7.05;;;19.70;99.90;;;;;;4962986;28;20121;-91
2022/07/31 15:08:30;;;;;;;10.05;7.05;;;19.60;99.90;;;;;;4904061;29;20091;-91
2022/07/31 15:11:12;;;;;;;11.13;7.38;;;19.60;99.90;;;;;;4912845;29;20488;-91
2022/07/31 15:14:14;;;;;;;12.05;7.68;;;19.60;99.90;;;;;;4901041;29;20052;-87
2022/07/31 15:17:01;;;;;;;11.85;7.70;;;19.50;99.90;;;;;;4941139;29;20059;-91
2022/07/31 15:19:30;;;;;;;10.27;7.25;;;19.50;99.90;;;;;;4974137;28;20051;-92
2022/07/31 15:22:17;;;;;;;14.90;7.72;;;19.50;99.90;;;;;;4981554;28;20066;-90
2022/07/31 15:24:47;;;;;;;8.05;6.05;;;19.50;99.90;;;;;;4982318;28;20041;-85
2022/07/31 15:27:12;;;;;;;9.82;5.03;;;19.40;99.90;;;;;;4983284;28;20077;-86
2022/07/31 15:29:38;;;;;;;8.48;5.10;;;19.30;99.90;;;;;;4977862;28;20039;-89
2022/07/31 15:32:04;;;;;;;8.98;5.10;;;19.30;99.90;;;;;;4977290;28;20039;-90
2022/07/31 15:34:41;;;;;;;;;;;;;;;;;;;;;
2022/07/31 15:37:33;;;;;;;6.13;4.55;;;19.30;99.90;;;;;;4976185;28;20074;-90
2022/07/31 15:39:59;;;;;;;5.97;4.05;;;19.30;99.90;;;;;;4976820;28;20050;-90
2022/07/31 15:42:39;;;;;;;8.00;5.25;;;19.40;99.90;;;;;;4975792;28;20126;-90
2022/07/31 15:45:16;;;;;;;6.90;4.35;;;19.50;99.90;;;;;;4976576;28;20078;-88
2022/07/31 15:47:43;;;;;;;5.85;3.80;;;19.50;99.90;;;;;;4975151;28;20074;-92
2022/07/31 15:50:11;;;;;;;4.97;3.92;;;19.60;99.90;;;;;;4977201;28;20395;-89
2022/07/31 15:52:37;;;;;;;6.25;4.05;;;19.60;99.90;;;;;;4978967;28;20042;-89
2022/07/31 15:55:04;;;;;;;5.13;3.67;;;19.60;99.90;;;;;;4978104;28;20042;-88
2022/07/31 15:57:30;;;;;;;6.38;3.88;;;19.60;99.90;;;;;;4977886;28;20046;-89
2022/07/31 16:00:08;;;;;;;4.57;3.83;;;19.60;99.90;;;;;;4959331;28;20049;-89
2022/07/31 16:03:01;;;;;;;5.15;3.95;;;19.60;99.90;;;;;;4959332;28;20126;-90
2022/07/31 16:05:26;;;;;;;5.82;4.07;;;19.60;99.90;;;;;;4928067;28;20054;-85
2022/07/31 16:07:52;;;;;;;5.10;3.72;;;19.60;99.90;;;;;;4977049;28;20078;-88
2022/07/31 16:10:18;;;;;;;3.83;2.80;;;19.50;99.90;;;;;;4975080;28;20487;-92
2022/07/31 16:13:17;;;;;;;4.63;2.80;;;19.50;99.90;;;;;;4975263;28;20042;-89
2022/07/31 16:16:08;;;;;;;3.50;1.80;;;19.40;99.90;;;;;;4944289;28;20109;-87
2022/07/31 16:20:00;;;;;;;4.43;2.40;;;19.30;99.90;;;;;;4954611;29;20055;-88
2022/07/31 16:22:25;;;;;;;3.83;2.38;;;19.30;99.90;;;;;;4931965;29;20463;-88
2022/07/31 16:24:52;;;;;;;5.20;2.97;;;19.30;99.90;;;;;;4938702;29;20043;-91
2022/07/31 16:27:17;;;;;;;4.38;3.17;;;19.30;99.90;;;;;;4955844;29;20066;-89
2022/07/31 16:29:43;;;;;;;5.10;3.40;;;19.30;99.90;;;;;;4939066;29;20511;-90
2022/07/31 16:32:09;;;;;;;5.15;3.60;;;19.30;99.90;;;;;;4922764;29;20498;-90
2022/07/31 16:34:34;;;;;;;5.05;3.45;;;19.30;99.90;;;;;;4954974;29;20047;-89
2022/07/31 16:37:00;;;;;;;4.85;3.35;;;19.20;99.90;;;;;;4938374;29;20110;-88
2022/07/31 16:39:31;;;;;;;7.05;3.95;;;19.20;99.90;;;;;;4954704;29;20220;-89
2022/07/31 16:41:57;;;;;;;5.30;3.40;;;19.20;99.90;;;;;;4922126;29;20047;-89
2022/07/31 16:44:23;;;;;;;7.30;4.03;;;19.20;99.90;;;;;;4922935;29;20106;-89
2022/07/31 16:46:48;;;;;;;3.38;2.60;;;19.20;99.90;;;;;;4954608;29;20043;-89
2022/07/31 16:49:14;;;;;;;4.60;2.95;;;19.20;99.90;;;;;;4960298;28;20059;-87
2022/07/31 16:51:40;;;;;;;5.50;2.85;;;19.30;99.90;;;;;;4958564;28;20047;-87
2022/07/31 16:54:05;;;;;;;4.68;2.95;;;19.30;99.90;;;;;;4974436;28;20407;-88
2022/07/31 16:56:36;;;;;;;5.95;3.05;;;19.30;99.90;;;;;;4959291;28;20065;-90
2022/07/31 16:59:44;;;;;;;4.55;3.40;;;19.30;99.90;;;;;;4959528;28;20097;-88
2022/07/31 17:02:10;;;;;;;5.50;3.53;;;19.30;99.90;;;;;;4972836;28;20066;-90
2022/07/31 17:04:41;;;;;;;6.85;4.13;;;19.20;99.90;;;;;;4977441;28;20117;-87
2022/07/31 17:07:06;;;;;;;8.93;5.68;;;19.20;99.90;;;;;;4977268;28;20482;-88
2022/07/31 17:09:32;;;;;;;8.25;4.65;;;19.20;99.90;;;;;;4978076;28;20150;-86
2022/07/31 17:11:58;;;;;;;8.15;4.43;;;19.10;99.90;;;;;;4964205;28;20126;-89
2022/07/31 17:14:26;;;;;;;6.57;4.90;;;19.10;99.90;;;;;;4982206;28;20409;-85
2022/07/31 17:16:53;;;;;;;8.25;5.60;;;19.10;99.90;;;;;;4964985;28;20053;-89
2022/07/31 17:19:21;;;;;;;11.70;6.07;;;19.10;99.90;;;;;;4981313;28;20050;-88
2022/07/31 17:21:55;;;;;;;11.00;5.63;;;19.10;99.90;;;;;;4982243;28;20058;-90
2022/07/31 17:24:21;;;;;;;11.63;5.50;;;19.10;99.90;;;;;;4981680;28;20064;-89
2022/07/31 17:26:47;;;;;;;12.48;5.47;;;19.10;99.90;;;;;;4981626;28;20570;-91
2022/07/31 17:32:44;;;;;;;10.88;6.25;;;19.10;99.90;;;;;;4995032;23;20054;-91
2022/07/31 17:35:22;;;;;;;12.30;6.35;;;19.10;99.90;;;;;;4995837;28;20047;-91
2022/07/31 17:38:28;;;;;;;14.07;6.88;;;19.10;99.90;;;;;;4979804;28;20090;-88
2022/07/31 17:41:44;;;;;;;13.80;7.65;;;19.20;99.90;;;;;;4963397;28;20394;-92
2022/07/31 17:44:57;;;;;;;13.10;6.50;;;19.30;99.90;;;;;;4972751;28;20047;-92
2022/07/31 17:48:07;;;;;;;14.32;7.75;;;19.30;99.90;;;;;;4909209;29;20036;-91
2022/07/31 17:53:03;;;;;;;17.05;7.40;;;19.30;99.90;;;;;;4960619;29;20051;-86
2022/07/31 18:06:56;;;;;;;;;;;;;;;;;;;;;
2022/07/31 18:10:18;;;;;;;;;;;;;;;;;;;;;
2022/07/31 18:13:00;;;;;;;14.60;7.00;;;19.30;99.90;;;;;;4960547;29;20406;-91
2022/07/31 18:15:47;;;;;;;18.73;7.82;;;19.30;99.90;;;;;;4961953;29;20031;-90
2022/07/31 18:18:22;;;;;;;16.20;8.00;;;19.30;99.90;;;;;;4944487;29;20051;-88
2022/07/31 18:20:47;;;;;;;15.35;6.80;;;19.30;99.90;;;;;;4960407;29;20051;-92
2022/07/31 18:23:21;;;;;;;14.63;5.55;;;19.20;99.90;;;;;;4961185;28;20047;-91
2022/07/31 18:25:50;;;;;;;8.93;4.13;;;19.20;99.90;;;;;;4943800;29;20126;-90
2022/07/31 18:35:05;;;;;;;;;;;19.10;99.90;;;;;;1380697;26;20051;-91
2022/07/31 18:38:06;;;;;;;8.82;3.25;;;19.10;99.90;;;;;;4962984;28;19918;-90
2022/07/31 18:43:41;;;;;;;8.02;3.80;;;19.10;99.90;;;;;;4903285;29;20044;-91
2022/07/31 18:56:43;;;;;;;9.75;4.40;;;18.90;99.90;;;;;;4937094;29;20043;-90
2022/07/31 19:02:45;;;;;;;7.90;4.45;;;18.90;99.90;;;;;;5405550;23;20057;-89
2022/07/31 19:05:11;;;;;;;10.07;4.38;;;18.90;99.90;;;;;;4960510;28;20126;-90
2022/07/31 19:07:40;;;;;;;7.75;3.95;;;18.90;99.90;;;;;;4960916;28;20166;-88